KELP/ELP METAR and TAF weather

Enter ICAO airport designator
Station Type Date Time Source
KELP METAR 2020/09/18 20:51 UTC NOAA

KELP 182051Z 11013G23KT 10SM SCT080 29/07 A3019 RMK AO2 SLP152 T02890072 56020


Station Type Date Time Source
KELP Decoded METAR 2020/09/18 20:51 UTC NOAA

EL PASO INTERNATIONAL AIRPORT , TX, United States (KELP) 31-49N 106-23W 1197M
Sep 18, 2020 - 04:51 PM EDT / 2020.09.18 2051 UTC
Wind: from the ESE (110 degrees) at 15 MPH (13 KT) gusting to 26 MPH (23 KT):0
Visibility: 10 mile(s):0
Sky conditions: partly cloudy
Temperature: 84.0 F (28.9 C)
Dew Point: 45.0 F (7.2 C)
Relative Humidity: 25%
Pressure (altimeter): 30.19 in. Hg (1022 hPa)
Pressure tendency: 0.06 inches (2.0 hPa) lower than three hours ago
ob: KELP 182051Z 11013G23KT 10SM SCT080 29/07 A3019 RMK AO2 SLP152 T02890072 56020
cycle: 21

Station Type Date Time Source
KELP TAF 2020/09/18 18:22 UTC NOAA

TAF KELP 181720Z 1818/1918 11011KT P6SM SCT090
FM190300 12006KT P6SM SKC
FM191200 03004KT P6SM SKC

Example: see airport list